Etusivu
METAR-TAF:

METAR-TAF

Lentoasemat :

Porterville Municipal Airport

Porterville, Kalifornia, Yhdysvallat

Leveyspiiri: 36-02N, Pituuspiiri: 119-04W, korkeus merenpinnasta: 135 m

Tämänhetkinen sää

Tämä raportti tehtiin 15 minuuttia sitten, kello 05.56 UTC
Tuuli 5 kn idästä
Lämpötila 10°C
Kosteus 87%
Ilmanpaine 1021 hPa
Näkyvyys: 12.9 km
selkeää

METAR: KPTV 260556Z AUTO 10005KT 8SM CLR 10/08 A3015 RMK AO2 SLP210 T01000083 10172 20083 53004

Aika: 22:11 (06:11 UTC)


TAF: puuttuu

Säähavainnot ja -ennusteet yli 4000 lentoasemalta (METAR- ja TAF-raportit).

Käytössä olevat sääasemat on merkitty karttaan keltaisilla ja punaisilla pisteillä.

Aseta hiiri pisteen päälle nähdäksesi sääaseman nimen.

Klikkaa sitten nähdäksesi säähavainnot ja -ennusteet.

Kartan vaihtaminen: klikkaa mustalla rastilla varustettuja vihreitä pisteitä, niin voit zoomata sisään; viivalla varustettua vihreää pistettä, niin voit zoomata ulos tai vihreitä nuolia, niin pääset viereisille kartoille.


METAR-TAF: